Time;durP1;ratioP1;P1;durP2;ratioP2;P2;SDS_P1;SDS_P2;PMS_P1;PMS_P2;Temp;Humidity;BMP_temperature;BMP_pressure;BME280_temperature;BME280_humidity;BME280_pressure;Samples;Min_cycle;Max_cycle;Signal;HPM_P1;HPM_P2
2022/05/28 00:01:51;;;;;;;4.77;3.13;;;12.50;99.90;;;;;;5031133;28;20263;-43
2022/05/28 00:04:17;;;;;;;5.20;3.47;;;12.50;99.90;;;;;;5029457;28;20251;-43
2022/05/28 00:06:45;;;;;;;4.50;3.27;;;12.50;99.90;;;;;;5029891;28;20178;-43
2022/05/28 00:09:10;;;;;;;3.43;3.10;;;12.50;99.90;;;;;;5013278;28;20256;-43
2022/05/28 00:11:38;;;;;;;4.53;3.40;;;12.50;99.90;;;;;;5029734;28;20203;-43
2022/05/28 00:14:06;;;;;;;3.53;3.13;;;12.40;99.90;;;;;;5029426;28;20656;-44
2022/05/28 00:16:32;;;;;;;5.00;3.47;;;12.40;99.90;;;;;;5029720;28;20258;-43
2022/05/28 00:18:58;;;;;;;5.73;3.50;;;12.50;99.90;;;;;;5030792;28;20175;-43
2022/05/28 00:21:25;;;;;;;4.30;4.00;;;12.50;99.90;;;;;;5029627;28;20200;-43
2022/05/28 00:23:51;;;;;;;5.93;5.33;;;12.60;99.90;;;;;;5013008;28;20181;-43
2022/05/28 00:26:17;;;;;;;5.53;5.07;;;12.70;99.90;;;;;;5029759;28;20180;-43
2022/05/28 00:28:43;;;;;;;5.10;3.83;;;12.70;99.90;;;;;;5030790;28;20218;-43
2022/05/28 00:31:09;;;;;;;4.23;3.60;;;12.80;99.90;;;;;;5030627;28;20236;-43
2022/05/28 00:33:35;;;;;;;3.10;2.80;;;12.70;99.90;;;;;;5030635;28;20174;-43
2022/05/28 00:36:04;;;;;;;4.33;3.30;;;12.80;99.90;;;;;;5029333;28;20188;-43
2022/05/28 00:38:30;;;;;;;4.17;3.40;;;12.70;99.90;;;;;;5029701;28;20179;-44
2022/05/28 00:40:58;;;;;;;3.63;3.23;;;12.50;99.90;;;;;;5012806;28;20188;-43
2022/05/28 00:43:25;;;;;;;6.10;3.33;;;12.50;99.90;;;;;;5029327;28;20179;-43
2022/05/28 00:46:11;;;;;;;6.00;3.30;;;12.40;99.90;;;;;;5030004;28;20178;-44
2022/05/28 00:48:40;;;;;;;6.63;3.73;;;12.50;99.90;;;;;;5029232;28;20220;-43
2022/05/28 00:51:14;;;;;;;6.07;3.97;;;12.50;99.90;;;;;;5012721;28;20178;-42
2022/05/28 00:53:41;;;;;;;9.20;3.97;;;12.50;99.90;;;;;;5028970;28;20245;-43
2022/05/28 00:56:07;;;;;;;5.20;3.50;;;12.40;99.90;;;;;;5012779;28;20285;-43
2022/05/28 00:58:34;;;;;;;7.13;3.57;;;12.50;99.90;;;;;;5015459;28;20643;-43
2022/05/28 01:01:01;;;;;;;8.20;3.90;;;12.50;99.90;;;;;;5032828;28;20179;-43
2022/05/28 01:03:43;;;;;;;8.20;3.60;;;12.50;99.90;;;;;;5032625;28;20210;-43
2022/05/28 01:06:40;;;;;;;5.83;3.83;;;12.60;99.90;;;;;;5016187;28;20260;-44
2022/05/28 01:09:21;;;;;;;5.23;3.30;;;12.60;99.90;;;;;;5021794;28;20223;-43
2022/05/28 01:12:02;;;;;;;8.50;3.40;;;12.60;99.90;;;;;;5032669;28;20194;-43
2022/05/28 01:14:52;;;;;;;6.73;3.63;;;12.60;99.90;;;;;;5015845;28;20187;-43
2022/05/28 01:17:36;;;;;;;9.23;3.53;;;12.60;99.90;;;;;;5028264;28;20196;-43
2022/05/28 01:20:26;;;;;;;8.00;3.73;;;12.70;99.90;;;;;;5032711;28;20198;-43
2022/05/28 01:22:55;;;;;;;7.10;3.60;;;12.70;99.90;;;;;;5015963;28;20195;-43
2022/05/28 01:25:45;;;;;;;5.50;3.20;;;12.70;99.90;;;;;;5015657;28;20202;-43
2022/05/28 01:28:15;;;;;;;5.33;3.33;;;12.80;99.90;;;;;;5032649;28;20210;-43
2022/05/28 01:30:44;;;;;;;5.17;3.23;;;12.80;99.90;;;;;;5016195;28;20184;-43
2022/05/28 01:33:12;;;;;;;7.33;3.10;;;12.90;99.90;;;;;;5015743;28;20197;-43
2022/05/28 01:35:38;;;;;;;5.67;3.50;;;12.90;99.90;;;;;;5031904;28;20177;-43
2022/05/28 01:38:06;;;;;;;6.10;3.17;;;13.00;99.90;;;;;;5031569;28;20211;-43
2022/05/28 01:40:34;;;;;;;6.90;2.90;;;13.10;99.90;;;;;;5031884;28;20191;-43
2022/05/28 01:43:05;;;;;;;6.20;3.00;;;13.10;99.90;;;;;;5033330;28;20258;-43
2022/05/28 01:45:32;;;;;;;5.10;3.17;;;13.20;99.90;;;;;;5031835;28;20190;-43
2022/05/28 01:48:01;;;;;;;7.33;3.00;;;13.20;99.90;;;;;;5032050;28;20242;-43
2022/05/28 01:50:31;;;;;;;4.80;3.03;;;13.20;99.90;;;;;;5031773;28;20180;-44
2022/05/28 01:53:04;;;;;;;7.03;3.03;;;13.20;99.90;;;;;;5031895;28;20201;-44
2022/05/28 01:55:32;;;;;;;5.67;2.93;;;13.20;99.90;;;;;;5014945;28;20197;-43
2022/05/28 01:57:58;;;;;;;5.97;2.77;;;13.20;99.90;;;;;;5033090;28;20192;-43
2022/05/28 02:00:24;;;;;;;4.83;3.20;;;13.20;99.90;;;;;;5015380;28;20189;-43
2022/05/28 02:02:51;;;;;;;8.77;2.93;;;13.30;99.90;;;;;;5031499;28;20583;-43
2022/05/28 02:05:17;;;;;;;6.03;2.67;;;13.30;99.90;;;;;;5014676;28;20216;-43
2022/05/28 02:07:43;;;;;;;6.97;3.00;;;13.20;99.90;;;;;;5031499;28;20235;-43
2022/05/28 02:10:13;;;;;;;6.70;2.97;;;13.10;99.90;;;;;;5030921;28;20185;-43
2022/05/28 02:12:53;;;;;;;9.43;3.07;;;13.10;99.90;;;;;;5014981;28;20203;-43
2022/05/28 02:15:44;;;;;;;6.13;3.33;;;13.00;99.90;;;;;;5031027;28;20250;-43
2022/05/28 02:18:35;;;;;;;7.20;3.00;;;13.00;99.90;;;;;;5031307;28;20187;-43
2022/05/28 02:21:10;;;;;;;9.40;3.37;;;13.10;99.90;;;;;;5014794;28;20264;-43
2022/05/28 02:23:57;;;;;;;6.03;2.80;;;13.00;99.90;;;;;;5031245;28;20186;-43
2022/05/28 02:26:29;;;;;;;6.07;3.00;;;12.90;99.90;;;;;;5032605;28;20191;-43
2022/05/28 02:28:55;;;;;;;8.43;2.77;;;12.90;99.90;;;;;;5031065;28;20220;-43
2022/05/28 02:31:28;;;;;;;7.23;2.90;;;12.80;99.90;;;;;;5014611;28;20200;-43
2022/05/28 02:33:54;;;;;;;9.20;3.03;;;12.90;99.90;;;;;;5030924;28;20183;-43
2022/05/28 02:36:21;;;;;;;7.03;3.07;;;12.90;99.90;;;;;;5014425;28;20657;-43
2022/05/28 02:38:47;;;;;;;5.20;2.83;;;12.80;99.90;;;;;;5014769;28;20183;-43
2022/05/28 02:41:13;;;;;;;7.73;3.07;;;12.70;99.90;;;;;;5032174;28;20179;-43
2022/05/28 02:43:39;;;;;;;6.53;3.07;;;12.70;99.90;;;;;;5014563;28;20185;-43
2022/05/28 02:46:06;;;;;;;9.80;3.67;;;12.70;99.90;;;;;;5030782;28;20196;-43
2022/05/28 02:48:33;;;;;;;7.63;3.40;;;12.60;99.90;;;;;;5014236;28;20220;-43
2022/05/28 02:51:11;;;;;;;3.60;2.57;;;12.60;99.90;;;;;;5032050;28;20239;-43
2022/05/28 02:53:37;;;;;;;9.00;3.00;;;12.60;99.90;;;;;;5030810;28;20284;-43
2022/05/28 02:56:04;;;;;;;4.93;3.03;;;12.60;99.90;;;;;;5030509;28;20197;-43
2022/05/28 02:58:30;;;;;;;7.60;3.57;;;12.60;99.90;;;;;;5030612;28;20258;-43
2022/05/28 03:00:56;;;;;;;7.53;3.10;;;12.60;99.90;;;;;;5013935;28;20193;-43
2022/05/28 03:03:22;;;;;;;9.77;3.73;;;12.60;99.90;;;;;;5031274;28;20198;-45
2022/05/28 03:05:52;;;;;;;6.90;3.13;;;12.70;99.90;;;;;;5031864;28;20171;-44
2022/05/28 03:08:18;;;;;;;6.57;3.00;;;12.60;99.90;;;;;;5031709;28;20274;-45
2022/05/28 03:10:45;;;;;;;11.73;3.77;;;12.70;99.90;;;;;;5031611;28;20183;-45
2022/05/28 03:13:11;;;;;;;8.87;3.00;;;12.60;99.90;;;;;;5032775;28;20255;-44
2022/05/28 03:15:38;;;;;;;9.10;3.13;;;12.50;99.90;;;;;;5015033;28;20270;-45
2022/05/28 03:18:04;;;;;;;7.60;3.03;;;12.40;99.90;;;;;;5015035;28;20186;-45
2022/05/28 03:20:31;;;;;;;8.03;3.23;;;12.40;99.90;;;;;;5030969;28;20207;-45
2022/05/28 03:22:57;;;;;;;8.23;3.47;;;12.40;99.90;;;;;;5014945;28;20201;-42
2022/05/28 03:25:25;;;;;;;8.47;2.90;;;12.30;99.90;;;;;;5031560;28;20195;-44
2022/05/28 03:27:50;;;;;;;7.07;3.20;;;12.20;99.90;;;;;;5031320;28;20206;-44
2022/05/28 03:30:17;;;;;;;7.50;2.97;;;12.20;99.90;;;;;;5031383;28;20176;-45
2022/05/28 03:32:43;;;;;;;6.97;2.83;;;12.20;99.90;;;;;;5031692;28;20252;-45
2022/05/28 03:35:09;;;;;;;9.90;2.93;;;12.20;99.90;;;;;;5031429;28;20174;-45
2022/05/28 03:37:36;;;;;;;9.20;2.70;;;12.20;99.90;;;;;;5031380;28;20250;-45
2022/05/28 03:40:03;;;;;;;6.00;2.50;;;12.20;99.90;;;;;;5032590;28;20202;-45
2022/05/28 03:42:29;;;;;;;8.70;2.47;;;12.20;99.90;;;;;;5015038;28;20206;-44
2022/05/28 03:44:55;;;;;;;5.20;2.30;;;12.20;99.90;;;;;;5030828;28;20186;-45
2022/05/28 03:47:21;;;;;;;6.30;2.87;;;12.20;99.90;;;;;;5032573;28;20282;-45
2022/05/28 03:49:47;;;;;;;5.53;2.70;;;12.10;99.90;;;;;;5031207;28;20175;-44
2022/05/28 03:52:14;;;;;;;8.20;3.50;;;12.00;99.90;;;;;;5014883;28;20709;-45
2022/05/28 03:54:43;;;;;;;12.40;3.00;;;12.10;99.90;;;;;;5014816;28;20202;-45
2022/05/28 03:57:14;;;;;;;9.47;2.90;;;12.10;99.90;;;;;;5032653;28;20174;-45
2022/05/28 03:59:41;;;;;;;7.27;2.53;;;12.10;99.90;;;;;;5031174;28;20175;-45
2022/05/28 04:02:07;;;;;;;6.93;2.40;;;12.00;99.90;;;;;;5013662;28;20264;-44
2022/05/28 04:04:33;;;;;;;6.43;2.70;;;12.10;99.90;;;;;;5014492;28;20323;-45
2022/05/28 04:07:00;;;;;;;11.43;2.80;;;12.10;99.90;;;;;;5030960;28;20182;-44
2022/05/28 04:09:27;;;;;;;8.03;2.53;;;12.10;99.90;;;;;;5015059;28;20185;-45
2022/05/28 04:11:53;;;;;;;9.43;3.33;;;11.90;99.90;;;;;;5014870;28;20372;-44
2022/05/28 04:14:18;;;;;;;8.87;2.77;;;12.00;99.90;;;;;;5014502;28;20206;-45
2022/05/28 04:16:44;;;;;;;6.10;2.70;;;11.90;99.90;;;;;;5014463;28;20187;-43
2022/05/28 04:19:10;;;;;;;8.67;2.50;;;11.90;99.90;;;;;;5032551;28;20185;-43
2022/05/28 04:21:37;;;;;;;7.10;2.90;;;11.90;99.90;;;;;;5014964;28;20209;-45
2022/05/28 04:24:04;;;;;;;8.27;2.20;;;11.90;99.90;;;;;;5030761;28;20186;-43
2022/05/28 04:26:29;;;;;;;8.27;3.47;;;11.80;99.90;;;;;;5031414;28;20210;-45
2022/05/28 04:28:55;;;;;;;6.00;2.37;;;11.90;99.90;;;;;;5013997;28;20253;-44
2022/05/28 04:31:21;;;;;;;6.30;2.50;;;11.90;99.90;;;;;;5031174;28;20222;-45
2022/05/28 04:33:47;;;;;;;7.37;2.20;;;11.90;99.90;;;;;;5018307;28;20179;-43
2022/05/28 04:36:13;;;;;;;11.03;3.13;;;11.90;99.90;;;;;;5018846;28;20183;-44
2022/05/28 04:38:39;;;;;;;8.00;2.37;;;11.90;99.90;;;;;;5018253;28;20213;-44
2022/05/28 04:41:05;;;;;;;7.27;2.50;;;12.00;99.90;;;;;;5018088;28;20191;-45
2022/05/28 04:43:30;;;;;;;9.37;2.60;;;11.90;99.90;;;;;;5034317;28;20230;-45
2022/05/28 04:45:56;;;;;;;7.13;2.33;;;11.90;99.90;;;;;;5034511;28;20179;-45
2022/05/28 04:48:22;;;;;;;7.80;2.50;;;12.00;99.90;;;;;;5034541;28;20211;-44
2022/05/28 04:50:48;;;;;;;8.30;2.87;;;11.80;99.90;;;;;;5034990;28;20209;-44
2022/05/28 04:53:14;;;;;;;8.43;2.73;;;11.80;99.90;;;;;;5034537;28;20259;-45
2022/05/28 04:55:40;;;;;;;9.87;2.27;;;11.80;99.90;;;;;;5035599;28;20183;-45
2022/05/28 04:58:06;;;;;;;8.97;2.90;;;11.90;99.90;;;;;;5034282;28;20217;-43
2022/05/28 05:00:33;;;;;;;8.87;2.57;;;12.00;99.90;;;;;;5017921;28;20244;-45
2022/05/28 05:02:59;;;;;;;6.00;2.63;;;12.10;99.90;;;;;;5017963;28;20210;-45
2022/05/28 05:05:25;;;;;;;6.77;2.60;;;12.20;99.90;;;;;;5017608;28;20197;-43
2022/05/28 05:07:51;;;;;;;7.23;2.53;;;12.20;99.90;;;;;;5017758;28;20211;-45
2022/05/28 05:10:16;;;;;;;5.37;2.23;;;12.20;99.90;;;;;;5017930;28;20176;-45
2022/05/28 05:12:42;;;;;;;6.80;2.30;;;12.20;99.90;;;;;;5017436;28;20686;-44
2022/05/28 05:15:09;;;;;;;6.43;2.60;;;12.20;99.90;;;;;;5017024;28;20269;-44
2022/05/28 05:17:34;;;;;;;7.27;2.37;;;12.20;99.90;;;;;;5017728;28;20190;-45
2022/05/28 05:20:00;;;;;;;7.53;2.53;;;12.40;99.90;;;;;;5035780;28;20270;-45
2022/05/28 05:22:26;;;;;;;7.43;2.50;;;12.50;99.90;;;;;;5017460;28;20207;-44
2022/05/28 05:24:52;;;;;;;7.30;2.60;;;12.70;99.90;;;;;;5033619;28;20183;-44
2022/05/28 05:27:18;;;;;;;6.33;2.70;;;12.90;99.90;;;;;;5033342;28;20215;-45
2022/05/28 05:29:44;;;;;;;9.43;3.20;;;13.00;99.90;;;;;;5034165;28;20173;-45
2022/05/28 05:32:10;;;;;;;8.47;3.20;;;13.10;99.90;;;;;;5035544;28;20192;-45
2022/05/28 05:34:37;;;;;;;8.70;2.77;;;13.10;99.90;;;;;;5016804;28;20250;-44
2022/05/28 05:37:04;;;;;;;9.90;2.77;;;13.20;99.90;;;;;;5033991;28;20263;-45
2022/05/28 05:39:30;;;;;;;7.37;2.43;;;13.30;99.90;;;;;;5016974;28;20185;-43
2022/05/28 05:41:56;;;;;;;7.23;2.43;;;13.30;99.90;;;;;;5034729;28;20207;-45
2022/05/28 05:44:21;;;;;;;13.87;2.70;;;13.50;99.90;;;;;;5015909;28;20185;-45
2022/05/28 05:46:47;;;;;;;7.73;2.80;;;13.60;99.90;;;;;;5034108;28;20200;-45
2022/05/28 05:49:13;;;;;;;7.50;2.40;;;13.60;99.90;;;;;;5016941;28;20213;-45
2022/05/28 05:51:45;;;;;;;9.00;2.70;;;13.80;99.90;;;;;;5016940;28;20205;-45
2022/05/28 05:54:13;;;;;;;8.60;2.80;;;13.90;99.90;;;;;;5033282;28;20219;-44
2022/05/28 05:56:39;;;;;;;9.70;2.63;;;13.50;99.90;;;;;;5016650;28;20185;-45
2022/05/28 05:59:05;;;;;;;10.97;2.80;;;13.60;99.90;;;;;;5017250;28;20215;-45
2022/05/28 06:01:31;;;;;;;6.83;2.30;;;13.50;99.90;;;;;;5016883;28;20204;-45
2022/05/28 06:03:57;;;;;;;7.07;2.63;;;13.40;99.90;;;;;;5016720;28;20193;-45
2022/05/28 06:06:23;;;;;;;7.00;2.10;;;13.60;99.90;;;;;;5016715;28;20199;-44
2022/05/28 06:08:49;;;;;;;7.87;2.40;;;13.80;99.90;;;;;;5016088;28;20213;-45
2022/05/28 06:11:15;;;;;;;6.00;2.50;;;13.90;99.90;;;;;;5016249;28;20193;-45
2022/05/28 06:13:41;;;;;;;9.57;2.23;;;14.00;99.90;;;;;;5016517;28;20187;-44
2022/05/28 06:16:07;;;;;;;7.87;2.37;;;14.00;99.90;;;;;;5032666;28;20184;-45
2022/05/28 06:18:33;;;;;;;6.30;2.20;;;14.10;99.90;;;;;;5033170;28;20200;-43
2022/05/28 06:21:00;;;;;;;7.97;2.43;;;14.30;99.90;;;;;;5016318;28;20265;-45
2022/05/28 06:23:26;;;;;;;6.37;2.30;;;14.20;99.90;;;;;;5015920;28;20248;-43
2022/05/28 06:25:52;;;;;;;5.87;1.93;;;14.40;99.90;;;;;;5016334;28;20198;-45
2022/05/28 06:28:18;;;;;;;5.23;2.20;;;14.70;99.90;;;;;;5016311;28;20264;-45
2022/05/28 06:30:46;;;;;;;7.60;2.40;;;14.60;99.90;;;;;;5016218;28;20178;-45
2022/05/28 06:33:12;;;;;;;6.43;2.37;;;14.70;99.90;;;;;;5016080;28;20245;-45
2022/05/28 06:35:38;;;;;;;6.60;2.10;;;14.80;99.90;;;;;;5015583;28;20206;-44
2022/05/28 06:38:05;;;;;;;4.07;1.50;;;14.70;99.90;;;;;;5032233;28;20193;-45
2022/05/28 06:40:31;;;;;;;6.37;2.10;;;14.70;99.90;;;;;;5015895;28;20597;-44
2022/05/28 06:42:57;;;;;;;6.20;1.83;;;14.70;99.90;;;;;;5032664;28;20203;-43
2022/05/28 06:45:24;;;;;;;4.80;1.90;;;14.70;99.90;;;;;;5032978;28;20179;-45
2022/05/28 06:47:51;;;;;;;6.47;1.90;;;14.90;99.90;;;;;;5032384;28;20206;-43
2022/05/28 06:53:08;;;;;;;3.80;1.67;;;15.20;99.90;;;;;;5032213;28;20207;-45
2022/05/28 06:55:35;;;;;;;7.27;2.00;;;15.50;99.90;;;;;;5031695;28;20569;-45
2022/05/28 06:58:02;;;;;;;5.57;1.80;;;15.80;99.90;;;;;;5031821;28;20182;-45
2022/05/28 07:00:28;;;;;;;4.37;1.80;;;16.00;99.90;;;;;;5031983;28;20185;-45
2022/05/28 07:02:54;;;;;;;5.80;2.00;;;16.20;99.90;;;;;;5032154;28;20207;-45
2022/05/28 07:05:20;;;;;;;4.97;1.90;;;16.30;99.90;;;;;;5033279;28;20186;-45
2022/05/28 07:07:46;;;;;;;5.77;1.50;;;16.40;99.90;;;;;;5015396;28;20202;-45
2022/05/28 07:10:12;;;;;;;5.33;1.50;;;16.20;99.90;;;;;;5015540;28;20231;-45
2022/05/28 07:12:38;;;;;;;6.87;1.53;;;16.30;99.90;;;;;;5015551;28;20226;-45
2022/05/28 07:15:04;;;;;;;4.60;1.50;;;16.30;99.90;;;;;;5031661;28;20202;-44
2022/05/28 07:17:30;;;;;;;3.47;1.60;;;16.20;99.90;;;;;;5014917;28;20182;-43
2022/05/28 07:19:56;;;;;;;5.93;1.37;;;16.10;99.90;;;;;;5015196;28;20187;-46
2022/05/28 07:22:22;;;;;;;3.83;1.60;;;16.00;99.90;;;;;;5015876;28;20213;-45
2022/05/28 07:24:48;;;;;;;3.70;1.33;;;16.20;99.90;;;;;;5031662;28;20221;-45
2022/05/28 07:27:14;;;;;;;3.83;1.50;;;16.00;99.90;;;;;;5015297;28;20255;-45
2022/05/28 07:29:40;;;;;;;3.60;1.50;;;16.00;99.90;;;;;;5031297;28;20240;-45
2022/05/28 07:32:07;;;;;;;5.53;1.80;;;16.10;99.90;;;;;;5014794;28;20294;-45
2022/05/28 07:34:34;;;;;;;6.37;1.53;;;16.30;99.90;;;;;;5014771;28;20193;-45
2022/05/28 07:37:00;;;;;;;4.20;1.27;;;16.50;99.90;;;;;;5014288;28;20185;-45
2022/05/28 07:39:26;;;;;;;1.63;1.00;;;16.20;99.90;;;;;;5014661;28;20178;-45
2022/05/28 07:41:52;;;;;;;4.87;1.50;;;16.30;99.90;;;;;;5014543;28;20292;-45
2022/05/28 07:44:18;;;;;;;3.33;1.20;;;16.40;99.90;;;;;;5030453;28;20214;-45
2022/05/28 07:46:44;;;;;;;2.73;1.53;;;16.30;99.90;;;;;;5014139;28;20210;-45
2022/05/28 07:49:10;;;;;;;3.60;1.30;;;16.60;99.90;;;;;;5014700;28;20303;-45
2022/05/28 07:51:36;;;;;;;2.60;1.33;;;16.80;99.90;;;;;;5014054;28;20198;-45
2022/05/28 07:54:03;;;;;;;3.33;1.33;;;16.80;99.90;;;;;;5031628;28;20170;-44
2022/05/28 07:56:29;;;;;;;2.50;1.13;;;16.80;99.90;;;;;;5030672;28;20250;-42
2022/05/28 07:58:55;;;;;;;5.00;1.27;;;17.00;99.90;;;;;;5014281;28;20277;-44
2022/05/28 08:01:24;;;;;;;3.83;1.40;;;16.80;99.90;;;;;;5013635;28;20226;-43
2022/05/28 08:03:50;;;;;;;1.93;0.87;;;16.70;99.90;;;;;;5013535;28;20284;-45
2022/05/28 08:06:17;;;;;;;4.67;1.20;;;16.90;99.90;;;;;;5031943;28;20225;-45
2022/05/28 08:08:43;;;;;;;3.10;1.30;;;17.10;99.90;;;;;;5017649;28;20218;-45
2022/05/28 08:11:09;;;;;;;3.50;1.30;;;16.80;99.50;;;;;;5017811;28;20551;-45
2022/05/28 08:13:35;;;;;;;3.30;0.90;;;16.80;99.90;;;;;;5018174;28;20228;-44
2022/05/28 08:16:01;;;;;;;3.50;0.90;;;16.80;99.10;;;;;;5034290;28;20178;-45
2022/05/28 08:18:28;;;;;;;2.73;1.10;;;16.70;99.00;;;;;;5034622;28;20178;-45
2022/05/28 08:23:40;;;;;;;3.17;0.90;;;16.70;99.90;;;;;;5036119;28;20171;-45
2022/05/28 08:26:08;;;;;;;5.23;1.17;;;17.00;99.90;;;;;;5018316;28;20175;-45
2022/05/28 08:28:36;;;;;;;3.23;1.23;;;17.20;99.90;;;;;;5018759;28;20217;-45
2022/05/28 08:31:02;;;;;;;3.83;1.50;;;17.30;99.90;;;;;;5035572;28;20185;-42
2022/05/28 08:33:28;;;;;;;3.97;1.20;;;17.60;99.90;;;;;;5019448;28;20189;-45
2022/05/28 08:35:55;;;;;;;4.37;1.47;;;17.70;97.70;;;;;;5018996;28;20190;-45
2022/05/28 08:38:22;;;;;;;3.35;1.08;;;17.90;98.70;;;;;;5019110;28;20267;-45
2022/05/28 08:41:08;;;;;;;4.07;1.20;;;18.10;97.70;;;;;;5035601;28;20187;-45
2022/05/28 08:43:44;;;;;;;2.20;1.00;;;18.20;98.00;;;;;;5019396;28;20193;-45
2022/05/28 08:46:12;;;;;;;3.35;0.95;;;18.40;97.60;;;;;;5018959;28;20179;-45
2022/05/28 08:48:52;;;;;;;3.13;1.15;;;18.00;94.90;;;;;;5034778;28;20316;-44
2022/05/28 08:51:28;;;;;;;2.33;1.02;;;17.40;96.50;;;;;;5019455;28;20248;-45
2022/05/28 08:54:04;;;;;;;2.65;1.13;;;17.50;96.20;;;;;;5035662;28;20232;-44
2022/05/28 08:56:31;;;;;;;4.80;1.20;;;17.70;97.10;;;;;;5019665;28;20240;-45
2022/05/28 08:59:04;;;;;;;3.25;1.10;;;17.90;97.80;;;;;;5019524;28;20194;-45
2022/05/28 09:01:33;;;;;;;3.65;1.33;;;17.90;97.00;;;;;;5035982;28;20206;-45
2022/05/28 09:04:03;;;;;;;1.98;1.10;;;18.10;95.60;;;;;;5016713;28;20229;-44
2022/05/28 09:06:43;;;;;;;1.80;1.00;;;18.50;95.80;;;;;;5032646;28;20179;-44
2022/05/28 09:09:12;;;;;;;2.13;1.20;;;18.70;96.30;;;;;;5016059;28;20210;-44
2022/05/28 09:12:00;;;;;;;1.88;0.98;;;18.70;95.90;;;;;;5032419;28;20592;-44
2022/05/28 09:14:30;;;;;;;2.90;0.75;;;18.20;94.20;;;;;;5015118;28;20230;-44
2022/05/28 09:17:11;;;;;;;1.75;0.80;;;17.90;93.30;;;;;;5015834;28;20217;-44
2022/05/28 09:19:41;;;;;;;1.60;0.70;;;18.40;93.70;;;;;;5032356;28;20171;-44
2022/05/28 09:22:07;;;;;;;1.27;0.75;;;18.90;93.30;;;;;;5032186;28;20198;-44
2022/05/28 09:24:34;;;;;;;1.40;0.90;;;19.20;93.20;;;;;;5031711;28;20197;-44
2022/05/28 09:26:59;;;;;;;3.40;0.80;;;19.30;93.60;;;;;;5015765;28;20174;-44
2022/05/28 09:29:40;;;;;;;2.08;0.80;;;19.30;91.30;;;;;;5015612;28;20213;-44
2022/05/28 09:32:24;;;;;;;3.38;1.00;;;19.50;91.70;;;;;;5031979;28;20252;-44
2022/05/28 09:35:22;;;;;;;2.22;0.90;;;19.60;91.30;;;;;;5031618;28;20178;-44
2022/05/28 09:37:56;;;;;;;2.13;0.90;;;19.30;90.80;;;;;;4980996;28;20191;-44
2022/05/28 09:40:40;;;;;;;2.33;0.88;;;18.70;92.70;;;;;;5032094;28;20193;-44
2022/05/28 09:43:32;;;;;;;2.10;1.02;;;18.60;91.90;;;;;;5015351;28;20210;-44
2022/05/28 09:46:45;;;;;;;2.90;1.00;;;18.40;93.00;;;;;;4999744;28;20198;-44
2022/05/28 09:49:16;;;;;;;1.92;1.00;;;19.00;92.60;;;;;;4993130;28;20218;-44
2022/05/28 09:51:57;;;;;;;1.90;0.70;;;19.50;92.40;;;;;;5015135;28;20210;-44
2022/05/28 09:54:33;;;;;;;2.05;1.00;;;20.00;91.60;;;;;;5031355;28;20206;-44
2022/05/28 09:57:20;;;;;;;4.10;0.90;;;20.40;92.60;;;;;;5015314;28;20182;-44
2022/05/28 09:59:49;;;;;;;2.33;0.98;;;20.10;91.60;;;;;;5015086;28;20178;-44
2022/05/28 10:02:32;;;;;;;1.70;0.80;;;19.90;91.70;;;;;;5014808;28;20289;-44
2022/05/28 10:05:08;;;;;;;2.97;0.98;;;19.90;91.30;;;;;;5031632;28;20192;-44
2022/05/28 10:07:46;;;;;;;1.25;0.98;;;20.20;91.80;;;;;;5014966;28;20576;-44
2022/05/28 10:10:27;;;;;;;1.83;1.00;;;20.00;92.80;;;;;;5032859;28;20248;-44
2022/05/28 10:13:15;;;;;;;1.98;0.90;;;19.50;92.70;;;;;;5033115;28;20190;-44
2022/05/28 10:15:49;;;;;;;2.28;0.90;;;19.40;92.90;;;;;;5032521;28;20173;-44
2022/05/28 10:18:25;;;;;;;3.53;1.00;;;19.40;92.90;;;;;;5031405;28;20178;-44
2022/05/28 10:21:02;;;;;;;2.50;1.00;;;18.70;92.60;;;;;;5014364;28;20193;-44
2022/05/28 10:23:28;;;;;;;1.70;0.98;;;18.90;92.50;;;;;;5031178;28;20182;-44
2022/05/28 10:25:54;;;;;;;2.05;0.88;;;18.50;92.60;;;;;;5031015;28;20197;-44
2022/05/28 10:28:40;;;;;;;1.50;0.88;;;18.30;92.50;;;;;;5032348;28;20247;-44
2022/05/28 10:31:28;;;;;;;2.45;1.00;;;18.80;93.20;;;;;;5030382;28;20178;-44
2022/05/28 10:33:55;;;;;;;1.98;0.93;;;18.80;92.90;;;;;;5030866;28;20254;-44
2022/05/28 10:36:25;;;;;;;2.17;1.10;;;19.10;94.60;;;;;;5030876;28;20188;-44
2022/05/28 10:38:51;;;;;;;5.20;1.58;;;19.40;93.60;;;;;;5031015;28;20273;-44
2022/05/28 10:41:26;;;;;;;3.65;1.10;;;19.60;92.90;;;;;;5030680;28;20717;-44
2022/05/28 10:43:52;;;;;;;5.70;1.45;;;19.60;93.00;;;;;;5030518;28;20193;-44
2022/05/28 10:46:45;;;;;;;5.25;1.35;;;19.80;92.60;;;;;;5032176;28;20178;-44
2022/05/28 10:49:26;;;;;;;1.83;0.88;;;19.50;92.70;;;;;;5014079;28;20217;-44
2022/05/28 10:52:04;;;;;;;2.97;1.20;;;19.60;92.40;;;;;;5030681;28;20262;-44
2022/05/28 10:54:36;;;;;;;3.72;0.70;;;19.60;92.90;;;;;;5013874;28;20243;-44
2022/05/28 10:57:13;;;;;;;3.28;1.10;;;19.70;92.80;;;;;;5014155;28;20171;-44
2022/05/28 11:00:07;;;;;;;3.25;1.20;;;19.30;91.90;;;;;;5013964;28;20182;-44
2022/05/28 11:02:52;;;;;;;2.40;1.35;;;18.40;92.30;;;;;;5013645;28;20212;-44
2022/05/28 11:05:39;;;;;;;2.28;1.00;;;18.50;94.00;;;;;;5030018;28;20222;-44
2022/05/28 11:08:27;;;;;;;5.45;1.20;;;18.80;94.10;;;;;;5013854;28;20212;-44
2022/05/28 11:11:18;;;;;;;4.57;1.10;;;19.00;93.90;;;;;;5031433;28;20170;-43
2022/05/28 11:13:52;;;;;;;1.83;0.80;;;19.10;93.30;;;;;;5013713;28;20179;-44
2022/05/28 11:16:52;;;;;;;2.88;0.90;;;19.40;92.80;;;;;;5013726;28;20185;-43
2022/05/28 11:19:30;;;;;;;2.22;1.02;;;19.60;92.70;;;;;;5013520;28;20246;-44
2022/05/28 11:22:09;;;;;;;2.17;1.02;;;19.60;92.90;;;;;;5031444;28;20280;-44
2022/05/28 11:25:04;;;;;;;2.63;0.90;;;19.50;92.00;;;;;;5029912;28;20190;-44
2022/05/28 11:27:42;;;;;;;2.22;0.88;;;19.50;92.40;;;;;;5013402;28;20183;-44
2022/05/28 11:30:22;;;;;;;3.78;1.33;;;19.70;92.90;;;;;;5031302;28;20189;-44
2022/05/28 11:33:00;;;;;;;2.92;1.10;;;19.50;93.00;;;;;;5030075;28;20205;-44
2022/05/28 11:35:31;;;;;;;3.33;1.00;;;19.50;93.90;;;;;;5029516;28;20183;-44
2022/05/28 11:38:06;;;;;;;3.40;1.17;;;19.00;93.90;;;;;;5029606;28;20190;-44
2022/05/28 11:40:47;;;;;;;3.25;1.23;;;18.90;94.20;;;;;;5029842;28;20171;-44
2022/05/28 11:43:20;;;;;;;3.13;1.23;;;18.70;93.30;;;;;;5029324;28;20206;-44
2022/05/28 11:45:54;;;;;;;3.17;1.13;;;18.90;93.90;;;;;;5031012;28;20182;-44
2022/05/28 11:51:37;;;;;;;1.77;1.17;;;19.70;93.20;;;;;;5014266;28;20455;-44
2022/05/28 11:54:22;;;;;;;2.78;0.98;;;19.90;92.80;;;;;;5029490;28;20186;-44
2022/05/28 11:56:54;;;;;;;1.75;1.00;;;20.00;92.40;;;;;;5029533;28;20179;-44
2022/05/28 11:59:26;;;;;;;2.65;1.02;;;20.00;91.50;;;;;;5013095;28;20189;-44
2022/05/28 12:01:59;;;;;;;1.83;0.95;;;19.90;91.70;;;;;;5029638;28;20202;-45
2022/05/28 12:04:25;;;;;;;3.92;1.48;;;20.00;92.40;;;;;;5012880;28;20198;-44
2022/05/28 12:07:03;;;;;;;4.75;1.27;;;19.70;92.50;;;;;;5013104;28;20210;-44
2022/05/28 12:09:33;;;;;;;3.25;1.40;;;19.80;93.20;;;;;;5029580;28;20323;-44
2022/05/28 12:12:22;;;;;;;2.85;1.00;;;19.70;91.60;;;;;;5030881;28;20190;-44
2022/05/28 12:15:21;;;;;;;3.75;1.20;;;19.80;91.30;;;;;;5012927;28;20197;-44
2022/05/28 12:18:18;;;;;;;2.92;1.45;;;19.30;93.30;;;;;;5030744;28;20269;-44
2022/05/28 12:21:00;;;;;;;2.85;1.05;;;18.70;94.60;;;;;;5029590;28;20181;-44
2022/05/28 12:23:38;;;;;;;2.70;1.10;;;18.80;94.00;;;;;;5013009;28;20187;-44
2022/05/28 12:29:32;;;;;;;3.20;1.50;;;19.10;93.60;;;;;;5030661;28;20339;-44
2022/05/28 12:32:16;;;;;;;2.20;1.20;;;19.40;93.60;;;;;;5029138;28;20240;-44
2022/05/28 12:35:06;;;;;;;2.83;1.00;;;19.50;93.40;;;;;;5028820;28;20220;-44
2022/05/28 12:37:35;;;;;;;3.78;1.23;;;19.80;92.70;;;;;;5012633;28;20182;-44
2022/05/28 12:40:29;;;;;;;4.63;1.13;;;20.40;92.40;;;;;;5012708;28;20189;-44
2022/05/28 12:43:11;;;;;;;4.03;1.30;;;20.70;91.50;;;;;;5012565;28;20195;-44
2022/05/28 12:45:40;;;;;;;3.88;1.17;;;20.80;90.20;;;;;;5028881;28;20185;-44
2022/05/28 12:48:19;;;;;;;2.58;1.20;;;20.30;90.50;;;;;;5029098;28;20276;-44
2022/05/28 12:51:00;;;;;;;1.77;1.13;;;20.40;91.00;;;;;;5029180;28;20189;-44
2022/05/28 12:53:28;;;;;;;3.28;1.10;;;20.40;90.40;;;;;;5013974;28;20185;-44
2022/05/28 12:56:03;;;;;;;2.92;1.27;;;20.40;90.50;;;;;;5034069;28;20209;-44
2022/05/28 12:58:32;;;;;;;2.42;1.10;;;20.10;89.00;;;;;;5032835;28;20239;-44
2022/05/28 13:01:21;;;;;;;3.30;0.90;;;19.80;90.70;;;;;;5016151;28;20186;-44
2022/05/28 13:03:49;;;;;;;2.15;1.10;;;19.90;90.30;;;;;;5032582;28;20194;-44
2022/05/28 13:06:35;;;;;;;2.80;1.02;;;20.10;90.00;;;;;;5032597;28;20190;-44
2022/05/28 13:09:07;;;;;;;3.97;1.10;;;20.40;89.30;;;;;;5033865;28;20206;-44
2022/05/28 13:11:42;;;;;;;1.88;1.00;;;20.50;87.10;;;;;;5032487;28;20267;-43
2022/05/28 13:14:32;;;;;;;2.60;1.00;;;20.30;89.80;;;;;;5033432;28;20198;-44
2022/05/28 13:17:28;;;;;;;3.38;1.10;;;20.80;87.50;;;;;;5016029;28;20187;-44
2022/05/28 13:20:18;;;;;;;2.38;1.00;;;20.90;85.20;;;;;;5016071;28;20218;-44